Time;durP1;ratioP1;P1;durP2;ratioP2;P2;SDS_P1;SDS_P2;PMS_P1;PMS_P2;Temp;Humidity;BMP_temperature;BMP_pressure;BME280_temperature;BME280_humidity;BME280_pressure;Samples;Min_cycle;Max_cycle;Signal;HPM_P1;HPM_P2
2023/07/22 00:00:30;;;;;;;89.43;56.28;;;18.60;73.60;;;;;;5008410;27;86122;-76
2023/07/22 00:02:55;;;;;;;90.07;56.72;;;18.60;74.00;;;;;;5010628;27;86579;-75
2023/07/22 00:05:23;;;;;;;89.20;56.45;;;18.50;73.80;;;;;;5009343;28;89474;-73
2023/07/22 00:07:49;;;;;;;89.07;56.13;;;18.50;73.90;;;;;;5012000;27;85656;-76
2023/07/22 00:10:15;;;;;;;88.65;56.17;;;18.50;74.00;;;;;;4994904;28;86757;-73
2023/07/22 00:12:41;;;;;;;88.45;55.97;;;18.50;74.40;;;;;;5011691;27;85531;-73
2023/07/22 00:15:07;;;;;;;87.93;56.00;;;18.50;74.00;;;;;;5014261;28;85994;-73
2023/07/22 00:17:33;;;;;;;89.65;56.53;;;18.50;73.70;;;;;;5013973;28;88151;-76
2023/07/22 00:20:00;;;;;;;87.57;55.80;;;18.40;73.70;;;;;;5011553;27;86085;-75
2023/07/22 00:22:26;;;;;;;89.95;56.83;;;18.40;74.00;;;;;;5012647;27;87199;-75
2023/07/22 00:24:52;;;;;;;88.43;56.28;;;18.40;74.10;;;;;;5007898;27;87254;-73
2023/07/22 00:27:18;;;;;;;89.20;56.30;;;18.40;74.40;;;;;;5008586;28;85858;-75
2023/07/22 00:29:43;;;;;;;89.40;56.13;;;18.40;74.10;;;;;;5007180;28;85385;-74
2023/07/22 00:32:09;;;;;;;90.20;56.33;;;18.30;74.70;;;;;;5015256;28;85906;-75
2023/07/22 00:34:36;;;;;;;91.93;56.17;;;18.30;74.00;;;;;;5008743;28;85447;-75
2023/07/22 00:37:02;;;;;;;90.55;56.65;;;18.30;74.30;;;;;;4993002;28;90797;-76
2023/07/22 00:39:28;;;;;;;88.18;56.17;;;18.30;74.50;;;;;;5008547;28;86287;-75
2023/07/22 00:41:53;;;;;;;89.93;56.25;;;18.20;74.70;;;;;;4993867;28;85925;-73
2023/07/22 00:44:19;;;;;;;89.20;56.08;;;18.20;74.30;;;;;;4996807;28;88335;-72
2023/07/22 00:46:45;;;;;;;89.40;56.17;;;18.20;74.40;;;;;;5005774;28;90044;-74
2023/07/22 00:49:14;;;;;;;90.10;56.63;;;18.20;74.90;;;;;;5011066;28;87175;-75
2023/07/22 00:51:40;;;;;;;90.32;56.30;;;18.20;75.00;;;;;;5011711;28;88039;-73
2023/07/22 00:54:05;;;;;;;89.85;56.67;;;18.20;74.90;;;;;;4995982;28;87218;-76
2023/07/22 00:56:35;;;;;;;88.30;56.15;;;18.10;74.50;;;;;;5009987;28;86045;-73
2023/07/22 00:59:01;;;;;;;89.30;56.38;;;18.10;74.70;;;;;;5013020;27;85878;-75
2023/07/22 01:01:27;;;;;;;88.72;56.22;;;18.10;74.50;;;;;;5006276;28;88681;-76
2023/07/22 01:03:53;;;;;;;88.55;55.80;;;18.10;77.00;;;;;;4992044;28;89793;-76
2023/07/22 01:06:20;;;;;;;90.05;55.85;;;18.10;74.60;;;;;;5012560;27;86862;-76
2023/07/22 01:08:46;;;;;;;88.00;56.15;;;18.10;74.90;;;;;;5009691;28;86935;-75
2023/07/22 01:11:12;;;;;;;88.25;56.17;;;18.10;75.00;;;;;;5008620;28;85535;-76
2023/07/22 01:13:38;;;;;;;89.50;56.28;;;18.10;74.80;;;;;;5009097;28;88891;-75
2023/07/22 01:16:06;;;;;;;88.32;56.15;;;18.10;75.20;;;;;;5012061;28;85616;-73
2023/07/22 01:18:35;;;;;;;88.47;56.53;;;18.00;74.60;;;;;;5006617;27;85834;-75
2023/07/22 01:21:01;;;;;;;88.38;56.38;;;18.00;75.20;;;;;;5007873;28;88676;-75
2023/07/22 01:23:27;;;;;;;89.72;56.03;;;18.00;74.60;;;;;;5010899;28;85826;-76
2023/07/22 01:25:54;;;;;;;89.43;56.80;;;18.00;75.20;;;;;;5005322;27;86328;-74
2023/07/22 01:28:21;;;;;;;90.57;56.13;;;18.00;74.60;;;;;;5006977;27;87110;-75
2023/07/22 01:30:48;;;;;;;88.25;56.20;;;18.00;74.60;;;;;;4991715;28;86194;-76
2023/07/22 01:33:14;;;;;;;89.13;56.17;;;18.00;75.30;;;;;;5005164;28;88038;-72
2023/07/22 01:35:39;;;;;;;89.65;56.22;;;18.00;75.30;;;;;;5005437;27;85583;-74
2023/07/22 01:38:05;;;;;;;89.88;56.42;;;18.00;75.30;;;;;;5005079;27;85909;-75
2023/07/22 01:40:31;;;;;;;90.50;56.92;;;18.00;74.40;;;;;;5004131;27;86360;-74
2023/07/22 01:42:56;;;;;;;88.18;56.28;;;18.00;75.80;;;;;;5007209;28;85973;-74
2023/07/22 01:45:22;;;;;;;88.90;55.72;;;18.00;75.40;;;;;;5001502;27;87600;-71
2023/07/22 01:47:48;;;;;;;87.45;55.92;;;17.90;75.80;;;;;;5004985;28;88504;-71
2023/07/22 01:50:13;;;;;;;90.38;56.20;;;18.00;75.00;;;;;;4996105;28;85880;-72
2023/07/22 01:52:39;;;;;;;90.18;56.75;;;17.90;74.80;;;;;;5004321;27;86721;-74
2023/07/22 01:55:06;;;;;;;88.32;56.40;;;17.90;74.90;;;;;;5008880;27;88867;-74
2023/07/22 01:57:32;;;;;;;89.18;56.35;;;17.90;75.10;;;;;;5009455;28;86888;-73
2023/07/22 01:59:58;;;;;;;88.68;56.40;;;17.90;74.50;;;;;;5005913;28;85535;-73
2023/07/22 02:02:23;;;;;;;89.90;56.42;;;17.90;75.40;;;;;;5008633;28;85415;-75
2023/07/22 02:04:49;;;;;;;90.10;56.58;;;17.90;75.20;;;;;;5005443;27;86107;-75
2023/07/22 02:07:15;;;;;;;88.63;56.10;;;17.90;75.20;;;;;;5005739;27;87233;-75
2023/07/22 02:09:40;;;;;;;88.93;56.10;;;17.90;75.20;;;;;;5007883;28;86423;-75
2023/07/22 02:12:07;;;;;;;88.18;55.92;;;17.90;75.80;;;;;;5004513;28;87876;-73
2023/07/22 02:14:33;;;;;;;88.60;56.17;;;17.90;75.00;;;;;;5008756;27;88151;-75
2023/07/22 02:16:59;;;;;;;90.80;56.35;;;17.90;75.50;;;;;;5010846;28;86387;-75
2023/07/22 02:19:24;;;;;;;89.63;56.40;;;17.80;75.60;;;;;;5006494;28;89102;-72
2023/07/22 02:21:50;;;;;;;89.28;55.97;;;17.80;74.80;;;;;;4983915;28;87607;-73
2023/07/22 02:24:16;;;;;;;89.28;56.60;;;17.80;75.50;;;;;;5004713;28;86397;-71
2023/07/22 02:26:41;;;;;;;88.20;56.20;;;17.80;75.90;;;;;;5006930;27;85472;-74
2023/07/22 02:29:07;;;;;;;89.93;56.45;;;17.80;75.40;;;;;;5006516;28;86754;-72
2023/07/22 02:31:33;;;;;;;87.88;56.22;;;17.80;75.30;;;;;;5004893;28;85577;-74
2023/07/22 02:33:59;;;;;;;90.43;56.58;;;17.80;75.40;;;;;;5003999;28;85549;-75
2023/07/22 02:36:24;;;;;;;90.43;56.28;;;17.80;75.80;;;;;;4983569;28;88374;-72
2023/07/22 02:38:50;;;;;;;89.95;56.67;;;17.80;75.60;;;;;;5001403;28;85559;-73
2023/07/22 02:41:15;;;;;;;87.03;55.80;;;17.70;75.50;;;;;;5005409;28;86055;-77
2023/07/22 02:43:41;;;;;;;90.00;56.40;;;17.70;76.00;;;;;;5001825;28;88201;-72
2023/07/22 02:46:07;;;;;;;89.22;56.75;;;17.70;75.80;;;;;;5006466;28;85542;-73
2023/07/22 02:48:34;;;;;;;90.43;57.08;;;17.70;75.40;;;;;;5008155;27;85485;-75
2023/07/22 02:51:06;;;;;;;88.35;56.28;;;17.70;75.70;;;;;;5005256;27;86658;-75
2023/07/22 02:53:33;;;;;;;88.22;56.53;;;17.70;75.80;;;;;;5003586;27;85185;-71
2023/07/22 02:55:59;;;;;;;90.07;56.47;;;17.70;75.70;;;;;;5003138;27;87394;-75
2023/07/22 02:58:25;;;;;;;88.57;56.13;;;17.60;75.30;;;;;;5008640;28;88516;-75
2023/07/22 03:00:51;;;;;;;90.10;56.70;;;17.60;76.00;;;;;;5001607;28;87217;-73
2023/07/22 03:03:18;;;;;;;90.55;56.55;;;17.60;75.50;;;;;;5001851;28;86578;-75
2023/07/22 03:05:45;;;;;;;86.65;55.38;;;17.60;75.50;;;;;;5004933;28;86562;-73
2023/07/22 03:08:10;;;;;;;90.07;56.20;;;17.50;76.50;;;;;;4986661;28;89058;-72
2023/07/22 03:10:36;;;;;;;89.10;56.28;;;17.50;76.10;;;;;;5003677;28;85608;-72
2023/07/22 03:13:03;;;;;;;88.10;56.10;;;17.50;76.70;;;;;;5005043;28;86428;-75
2023/07/22 03:15:29;;;;;;;88.97;56.55;;;17.50;75.90;;;;;;5008343;28;85232;-75
2023/07/22 03:17:56;;;;;;;88.28;56.33;;;17.50;76.40;;;;;;5008372;28;87309;-75
2023/07/22 03:20:23;;;;;;;88.88;55.78;;;17.40;76.30;;;;;;4994204;28;87048;-74
2023/07/22 03:22:48;;;;;;;89.75;56.47;;;17.40;76.20;;;;;;5004462;27;87689;-73
2023/07/22 03:25:16;;;;;;;88.63;56.80;;;17.40;76.50;;;;;;5004906;28;85914;-75
2023/07/22 03:27:43;;;;;;;90.00;56.55;;;17.40;76.60;;;;;;5005740;28;88224;-74
2023/07/22 03:30:11;;;;;;;88.78;56.08;;;17.40;76.40;;;;;;4986482;28;87994;-73
2023/07/22 03:32:37;;;;;;;87.55;55.50;;;17.40;76.70;;;;;;5007760;28;87474;-75
2023/07/22 03:35:03;;;;;;;89.07;56.45;;;17.30;76.70;;;;;;5015255;28;90541;-76
2023/07/22 03:37:29;;;;;;;89.32;56.20;;;17.30;77.40;;;;;;5008631;27;87248;-74
2023/07/22 03:39:55;;;;;;;88.72;55.85;;;17.30;76.70;;;;;;5008021;28;85534;-73
2023/07/22 03:42:20;;;;;;;89.18;56.25;;;17.30;77.10;;;;;;5003059;28;85605;-73
2023/07/22 03:44:46;;;;;;;87.85;56.22;;;17.30;77.00;;;;;;5006258;28;85558;-75
2023/07/22 03:47:12;;;;;;;88.53;56.50;;;17.30;76.50;;;;;;4985018;28;89331;-75
2023/07/22 03:49:37;;;;;;;89.28;56.47;;;17.20;76.50;;;;;;5013947;27;85215;-75
2023/07/22 03:52:03;;;;;;;88.45;55.83;;;17.20;76.90;;;;;;5012950;27;85809;-72
2023/07/22 03:54:32;;;;;;;87.72;55.78;;;17.20;77.40;;;;;;5012105;28;88948;-74
2023/07/22 03:56:57;;;;;;;89.47;56.47;;;17.20;77.40;;;;;;5010039;28;85973;-72
2023/07/22 03:59:23;;;;;;;88.75;56.63;;;17.20;77.80;;;;;;5013850;27;86067;-75
2023/07/22 04:01:48;;;;;;;90.88;56.55;;;17.20;77.60;;;;;;5007482;28;88032;-75
2023/07/22 04:04:14;;;;;;;88.00;56.33;;;17.10;76.50;;;;;;5011991;28;85894;-76
2023/07/22 04:06:40;;;;;;;88.85;56.13;;;17.10;76.40;;;;;;4994329;27;86275;-75
2023/07/22 04:09:05;;;;;;;87.93;55.78;;;17.10;76.90;;;;;;5009507;28;87898;-75
2023/07/22 04:11:31;;;;;;;88.80;56.25;;;17.10;77.40;;;;;;5014460;28;85889;-76
2023/07/22 04:13:56;;;;;;;89.40;56.22;;;17.10;76.80;;;;;;5009543;28;85816;-73
2023/07/22 04:16:22;;;;;;;87.43;56.20;;;17.10;78.60;;;;;;5007120;28;86033;-74
2023/07/22 04:18:47;;;;;;;88.43;56.03;;;17.10;77.40;;;;;;5006360;28;89826;-75
2023/07/22 04:21:13;;;;;;;89.70;56.50;;;17.10;76.60;;;;;;4994636;28;90226;-76
2023/07/22 04:23:39;;;;;;;86.95;55.70;;;17.10;76.80;;;;;;5007433;27;88128;-75
2023/07/22 04:26:04;;;;;;;88.85;56.47;;;17.00;77.40;;;;;;4989812;27;85766;-74
2023/07/22 04:28:30;;;;;;;87.80;55.80;;;17.00;76.70;;;;;;4992106;28;88145;-75
2023/07/22 04:30:58;;;;;;;87.53;55.72;;;17.10;77.00;;;;;;5006544;27;85935;-73
2023/07/22 04:33:24;;;;;;;88.40;56.35;;;17.00;77.10;;;;;;5011532;28;86027;-73
2023/07/22 04:35:52;;;;;;;88.47;56.50;;;17.00;77.30;;;;;;5009263;27;88961;-76
2023/07/22 04:38:18;;;;;;;90.22;56.20;;;17.00;77.80;;;;;;5008537;27;86037;-75
2023/07/22 04:40:44;;;;;;;87.72;56.28;;;17.00;76.80;;;;;;5007865;28;86237;-75
2023/07/22 04:43:10;;;;;;;87.53;55.58;;;17.00;77.20;;;;;;5004012;27;85974;-74
2023/07/22 04:45:35;;;;;;;87.22;55.78;;;17.00;77.80;;;;;;4989715;28;86812;-72
2023/07/22 04:48:01;;;;;;;87.25;55.28;;;17.00;77.80;;;;;;4994932;28;85190;-74
2023/07/22 04:50:27;;;;;;;88.07;55.95;;;17.00;78.30;;;;;;4990873;28;89049;-76
2023/07/22 04:52:54;;;;;;;87.25;55.63;;;17.00;76.70;;;;;;4987866;28;85166;-72
2023/07/22 04:55:20;;;;;;;86.97;55.40;;;17.00;78.00;;;;;;5006290;27;87267;-74
2023/07/22 04:57:46;;;;;;;88.63;55.83;;;17.10;77.50;;;;;;5004766;27;85601;-71
2023/07/22 05:00:16;;;;;;;88.03;56.33;;;17.10;77.60;;;;;;4992807;28;87931;-75
2023/07/22 05:02:46;;;;;;;88.20;56.17;;;17.10;76.60;;;;;;5008086;28;90288;-75
2023/07/22 05:05:16;;;;;;;87.27;55.57;;;17.10;77.20;;;;;;5008775;27;86009;-74
2023/07/22 05:07:42;;;;;;;87.40;55.92;;;17.10;76.60;;;;;;5004183;27;90085;-75
2023/07/22 05:10:12;;;;;;;88.38;56.35;;;17.10;76.00;;;;;;5001733;28;85451;-75
2023/07/22 05:12:41;;;;;;;88.40;56.03;;;17.20;76.60;;;;;;4984334;28;85395;-74
2023/07/22 05:15:08;;;;;;;88.10;55.63;;;17.20;76.50;;;;;;5005330;27;88173;-71
2023/07/22 05:17:33;;;;;;;87.93;55.83;;;17.20;77.20;;;;;;5005975;27;85892;-73
2023/07/22 05:19:59;;;;;;;86.95;55.95;;;17.20;77.40;;;;;;5002753;28;86344;-76
2023/07/22 05:22:25;;;;;;;86.93;55.83;;;17.20;76.90;;;;;;5004189;28;85641;-73
2023/07/22 05:24:51;;;;;;;88.95;56.42;;;17.20;75.50;;;;;;5005128;28;89543;-74
2023/07/22 05:27:17;;;;;;;87.55;55.78;;;17.20;76.40;;;;;;5009945;28;85425;-71
2023/07/22 05:29:43;;;;;;;87.10;55.83;;;17.30;76.30;;;;;;5008106;28;86301;-76
2023/07/22 05:32:09;;;;;;;88.60;55.80;;;17.30;75.70;;;;;;5006106;28;87558;-74
2023/07/22 05:34:35;;;;;;;87.53;55.78;;;17.30;75.90;;;;;;5007388;27;85719;-72
2023/07/22 05:37:00;;;;;;;87.20;55.28;;;17.30;75.30;;;;;;5006603;28;88197;-74
2023/07/22 05:39:26;;;;;;;88.15;55.97;;;17.40;76.80;;;;;;5004285;27;85990;-74
2023/07/22 05:41:52;;;;;;;87.05;55.78;;;17.40;75.50;;;;;;5009361;28;86605;-74
2023/07/22 05:44:17;;;;;;;85.28;54.83;;;17.40;75.80;;;;;;5004241;28;89907;-75
2023/07/22 05:46:43;;;;;;;86.30;55.42;;;17.40;75.80;;;;;;4987267;28;85467;-73
2023/07/22 05:49:10;;;;;;;86.22;55.30;;;17.40;74.60;;;;;;4989197;28;87727;-73
2023/07/22 05:51:36;;;;;;;87.32;55.85;;;17.50;74.30;;;;;;5003889;27;89092;-74
2023/07/22 05:54:02;;;;;;;87.47;55.72;;;17.50;74.80;;;;;;5010253;27;87354;-76
2023/07/22 05:56:27;;;;;;;88.78;55.35;;;17.50;74.00;;;;;;5004395;28;87788;-72
2023/07/22 05:58:53;;;;;;;87.55;55.28;;;17.50;74.30;;;;;;5002983;28;88966;-74
2023/07/22 06:01:19;;;;;;;87.65;55.35;;;17.60;75.30;;;;;;5010763;27;86390;-75
2023/07/22 06:03:44;;;;;;;87.32;55.47;;;17.60;78.40;;;;;;5011271;27;85573;-75
2023/07/22 06:06:10;;;;;;;89.75;55.67;;;17.70;77.70;;;;;;5018358;27;85550;-75
2023/07/22 06:08:36;;;;;;;91.13;55.80;;;17.70;77.70;;;;;;5022933;27;85792;-75
2023/07/22 06:11:01;;;;;;;91.20;56.28;;;17.70;78.20;;;;;;5012540;28;86748;-74
2023/07/22 06:13:27;;;;;;;89.10;55.72;;;17.80;78.50;;;;;;5006371;28;87979;-75
2023/07/22 06:15:52;;;;;;;91.78;57.38;;;17.80;77.70;;;;;;4999941;28;90151;-69
2023/07/22 06:18:18;;;;;;;89.80;56.90;;;17.80;76.30;;;;;;5005591;28;89179;-68
2023/07/22 06:20:44;;;;;;;93.32;56.85;;;18.00;75.10;;;;;;5001808;28;90119;-72
2023/07/22 06:23:10;;;;;;;93.20;57.08;;;18.10;74.30;;;;;;5001606;27;87113;-72
2023/07/22 06:25:36;;;;;;;90.07;56.38;;;18.10;74.20;;;;;;4999826;27;85565;-70
2023/07/22 06:28:01;;;;;;;91.55;57.38;;;18.20;73.90;;;;;;5001185;28;89906;-71
2023/07/22 06:30:27;;;;;;;94.20;57.70;;;18.20;73.50;;;;;;4999811;27;87240;-70
2023/07/22 06:32:53;;;;;;;92.60;57.67;;;18.20;73.20;;;;;;5004443;28;86007;-69
2023/07/22 06:35:18;;;;;;;91.95;56.78;;;18.30;73.40;;;;;;5003304;27;88061;-73
2023/07/22 06:37:44;;;;;;;94.65;57.08;;;18.40;72.80;;;;;;5009071;27;85318;-72
2023/07/22 06:40:10;;;;;;;92.10;57.08;;;18.30;72.50;;;;;;5016842;28;86218;-72
2023/07/22 06:42:36;;;;;;;89.13;56.33;;;18.40;73.30;;;;;;5009128;28;85611;-72
2023/07/22 06:45:02;;;;;;;93.00;56.60;;;18.40;74.10;;;;;;5007437;28;85241;-72
2023/07/22 06:47:28;;;;;;;91.78;56.85;;;18.40;73.40;;;;;;5000084;27;86881;-70
2023/07/22 06:49:54;;;;;;;95.72;56.50;;;18.50;74.00;;;;;;4988521;28;87428;-69
2023/07/22 06:52:20;;;;;;;92.25;57.10;;;18.50;73.40;;;;;;5004858;28;85856;-70
2023/07/22 06:54:45;;;;;;;92.97;56.75;;;18.60;73.70;;;;;;5001304;27;85290;-71
2023/07/22 06:57:11;;;;;;;95.78;56.83;;;18.70;73.20;;;;;;5007783;28;85559;-70
2023/07/22 06:59:37;;;;;;;92.18;56.95;;;18.70;72.80;;;;;;5005385;28;85284;-70
2023/07/22 07:02:04;;;;;;;95.05;56.92;;;18.70;73.60;;;;;;4993274;27;86246;-71
2023/07/22 07:04:30;;;;;;;96.63;56.78;;;18.80;73.40;;;;;;5005931;27;84728;-72
2023/07/22 07:06:55;;;;;;;94.50;56.30;;;18.90;73.10;;;;;;5006895;28;85794;-72
2023/07/22 07:09:21;;;;;;;91.50;56.40;;;19.10;72.80;;;;;;4994694;28;84910;-72
2023/07/22 07:11:47;;;;;;;91.03;56.22;;;19.10;72.60;;;;;;5002734;27;87532;-73
2023/07/22 07:14:12;;;;;;;93.90;56.85;;;19.20;72.50;;;;;;5008811;27;85601;-74
2023/07/22 07:16:38;;;;;;;90.05;55.80;;;19.10;72.10;;;;;;5000914;28;85360;-71
2023/07/22 07:19:04;;;;;;;90.43;56.00;;;19.20;73.00;;;;;;4987205;28;86503;-72
2023/07/22 07:21:29;;;;;;;90.32;56.03;;;19.20;72.30;;;;;;4986473;28;85769;-72
2023/07/22 07:23:55;;;;;;;93.70;56.58;;;19.30;72.10;;;;;;5001211;28;85218;-70
2023/07/22 07:26:21;;;;;;;93.30;56.50;;;19.30;72.60;;;;;;5002554;28;89246;-70
2023/07/22 07:28:48;;;;;;;89.47;56.20;;;19.40;72.40;;;;;;5000768;27;86478;-71
2023/07/22 07:31:14;;;;;;;90.50;56.00;;;19.40;72.50;;;;;;5004141;27;85101;-71
2023/07/22 07:33:40;;;;;;;90.78;56.03;;;19.50;72.20;;;;;;5012514;27;86185;-72
2023/07/22 07:36:05;;;;;;;91.97;55.75;;;19.40;72.20;;;;;;5010805;28;86015;-71
2023/07/22 07:38:31;;;;;;;90.60;55.67;;;19.40;73.50;;;;;;5006735;27;86710;-72
2023/07/22 07:40:59;;;;;;;92.05;56.45;;;19.40;72.80;;;;;;5009128;27;84792;-70
2023/07/22 07:43:26;;;;;;;90.03;55.75;;;19.40;73.10;;;;;;4999306;27;88123;-70
2023/07/22 07:46:12;;;;;;;93.10;55.85;;;19.50;72.40;;;;;;5005286;28;84571;-72
2023/07/22 07:48:38;;;;;;;90.30;55.58;;;19.70;71.60;;;;;;5007766;28;85526;-71
2023/07/22 07:51:03;;;;;;;94.93;55.85;;;19.70;71.90;;;;;;5007973;27;84515;-72
2023/07/22 07:53:29;;;;;;;90.82;55.85;;;19.70;72.20;;;;;;4999893;27;85635;-72
2023/07/22 07:55:54;;;;;;;90.68;55.72;;;19.70;72.10;;;;;;5005342;28;88675;-72
2023/07/22 07:58:20;;;;;;;89.32;55.17;;;19.70;72.20;;;;;;5016496;28;85293;-71
2023/07/22 08:00:46;;;;;;;91.00;54.95;;;19.70;72.60;;;;;;5011103;27;88297;-73
2023/07/22 08:03:11;;;;;;;87.80;54.50;;;19.80;72.60;;;;;;5018534;28;84917;-71
2023/07/22 08:05:37;;;;;;;90.90;54.65;;;19.80;72.40;;;;;;5013267;28;86720;-71
2023/07/22 08:08:03;;;;;;;93.10;54.92;;;19.70;71.80;;;;;;5010651;27;88562;-71
2023/07/22 08:10:28;;;;;;;89.25;54.80;;;19.80;72.30;;;;;;5019138;28;85045;-73
2023/07/22 08:12:54;;;;;;;93.55;54.60;;;19.80;71.50;;;;;;5019578;27;88571;-71
2023/07/22 08:15:19;;;;;;;87.22;54.10;;;19.80;71.30;;;;;;5022126;28;86260;-72
2023/07/22 08:17:45;;;;;;;88.13;54.15;;;19.70;71.10;;;;;;5019527;28;84851;-74
2023/07/22 08:20:11;;;;;;;87.78;53.92;;;19.80;71.50;;;;;;5014438;28;89188;-71
2023/07/22 08:22:37;;;;;;;87.32;54.00;;;19.90;70.50;;;;;;5013040;27;85960;-71
2023/07/22 08:25:02;;;;;;;86.50;53.63;;;19.90;70.40;;;;;;5001591;28;86984;-70
2023/07/22 08:27:28;;;;;;;86.80;53.72;;;19.90;70.00;;;;;;5026949;28;89272;-72
2023/07/22 08:29:54;;;;;;;86.60;53.85;;;19.90;68.70;;;;;;5020259;28;85983;-71
2023/07/22 08:32:20;;;;;;;88.00;53.63;;;19.90;69.50;;;;;;5020723;27;84717;-70
2023/07/22 08:34:45;;;;;;;85.68;53.67;;;20.00;69.60;;;;;;5025644;27;85613;-71
2023/07/22 08:37:11;;;;;;;88.13;53.53;;;20.00;67.50;;;;;;5024180;28;84992;-71
2023/07/22 08:39:37;;;;;;;88.93;53.92;;;20.00;68.00;;;;;;5025779;27;85303;-71
2023/07/22 08:42:05;;;;;;;87.70;54.03;;;20.10;67.60;;;;;;5021557;28;85235;-70
2023/07/22 08:44:35;;;;;;;85.78;53.65;;;20.10;68.00;;;;;;5022850;27;85505;-70
2023/07/22 08:47:03;;;;;;;85.80;53.58;;;20.10;65.20;;;;;;5022170;28;85777;-71
2023/07/22 08:49:30;;;;;;;87.72;53.78;;;20.10;65.40;;;;;;5023731;27;85682;-70
2023/07/22 08:51:59;;;;;;;89.95;53.72;;;20.10;66.30;;;;;;5006450;27;86422;-73
2023/07/22 08:54:25;;;;;;;90.57;53.83;;;20.20;67.10;;;;;;5015461;27;86389;-71
2023/07/22 08:56:51;;;;;;;88.40;53.85;;;20.20;65.60;;;;;;5015154;22;86699;-47
2023/07/22 08:59:20;;;;;;;89.03;53.85;;;20.30;66.50;;;;;;4951170;28;85086;-47
2023/07/22 09:01:47;;;;;;;88.32;53.65;;;20.30;66.60;;;;;;4940476;28;86837;-46
2023/07/22 09:04:14;;;;;;;90.00;53.78;;;20.30;65.10;;;;;;4941867;28;85829;-46
2023/07/22 09:06:41;;;;;;;87.18;54.00;;;20.40;64.80;;;;;;4948068;28;87921;-47
2023/07/22 09:09:08;;;;;;;88.00;54.22;;;20.40;64.40;;;;;;4948722;28;86778;-46
2023/07/22 09:11:34;;;;;;;88.00;53.92;;;20.40;63.30;;;;;;4940313;28;86175;-52
2023/07/22 09:14:02;;;;;;;86.32;53.85;;;20.50;63.70;;;;;;4934497;28;87569;-50
2023/07/22 09:16:29;;;;;;;86.97;53.88;;;20.60;62.70;;;;;;4939640;28;87131;-49
2023/07/22 09:18:57;;;;;;;88.05;54.47;;;20.50;62.40;;;;;;4942575;28;86879;-45
2023/07/22 09:21:23;;;;;;;89.15;54.25;;;20.70;62.60;;;;;;4939200;28;88001;-45
2023/07/22 09:23:48;;;;;;;96.07;56.50;;;20.80;62.10;;;;;;4940436;28;86140;-48
2023/07/22 09:26:17;;;;;;;92.35;55.75;;;20.90;61.60;;;;;;4942290;28;85503;-46
2023/07/22 09:28:57;;;;;;;92.05;54.42;;;21.00;62.00;;;;;;4941299;28;85593;-51
2023/07/22 09:31:25;;;;;;;90.57;54.80;;;20.90;61.70;;;;;;4934818;28;86608;-49
2023/07/22 09:33:53;;;;;;;91.80;54.72;;;20.90;62.00;;;;;;4933145;28;87614;-46
2023/07/22 09:36:19;;;;;;;90.07;54.20;;;20.90;60.90;;;;;;4935336;28;87415;-47
2023/07/22 09:38:45;;;;;;;87.50;54.03;;;20.90;61.10;;;;;;4938916;28;86218;-46
2023/07/22 09:41:11;;;;;;;90.15;54.03;;;20.90;59.00;;;;;;4944121;28;85934;-47
2023/07/22 09:43:38;;;;;;;92.88;54.25;;;20.90;59.30;;;;;;4941315;28;87758;-47
2023/07/22 09:46:09;;;;;;;90.88;54.20;;;20.90;59.20;;;;;;4947748;28;85287;-47
2023/07/22 09:48:42;;;;;;;89.00;54.38;;;21.00;59.40;;;;;;4950127;28;87179;-47
2023/07/22 09:51:13;;;;;;;87.05;54.15;;;21.10;59.70;;;;;;4943438;28;86347;-45
2023/07/22 09:53:43;;;;;;;;;;;21.00;57.60;;;;;;4942117;28;87661;-46
2023/07/22 09:56:09;;;;;;;91.18;54.17;;;21.10;58.90;;;;;;4939594;28;86591;-44
2023/07/22 09:58:35;;;;;;;90.45;54.10;;;21.10;58.80;;;;;;4955995;28;85387;-44
2023/07/22 10:01:01;;;;;;;89.70;54.42;;;21.20;59.00;;;;;;4960054;28;90117;-47
2023/07/22 10:03:30;;;;;;;88.10;54.53;;;21.30;58.20;;;;;;4960153;28;87027;-44
2023/07/22 10:05:59;;;;;;;88.32;54.55;;;21.40;57.70;;;;;;4966600;28;85448;-47
2023/07/22 10:08:29;;;;;;;88.53;54.40;;;21.50;57.80;;;;;;4965712;28;86393;-44
2023/07/22 10:10:59;;;;;;;89.32;54.65;;;21.50;56.50;;;;;;4961025;28;86380;-47
2023/07/22 10:13:26;;;;;;;89.22;54.65;;;21.60;57.10;;;;;;4958375;28;88829;-49
2023/07/22 10:15:52;;;;;;;92.95;54.65;;;21.60;56.60;;;;;;4961994;28;85649;-50
2023/07/22 10:18:19;;;;;;;91.15;54.72;;;21.70;54.80;;;;;;4956719;28;87083;-44
2023/07/22 10:20:46;;;;;;;90.95;54.42;;;21.70;55.40;;;;;;4959197;28;85159;-48
2023/07/22 10:23:14;;;;;;;90.93;54.75;;;21.80;55.80;;;;;;4958078;28;86245;-50
2023/07/22 10:25:40;;;;;;;89.38;54.55;;;21.80;55.50;;;;;;4959843;28;85701;-50
2023/07/22 10:28:07;;;;;;;88.70;54.38;;;21.90;55.80;;;;;;4952559;28;87673;-45
2023/07/22 10:30:33;;;;;;;96.65;54.55;;;21.80;54.70;;;;;;4961148;28;86959;-49
2023/07/22 10:32:59;;;;;;;88.07;53.83;;;21.70;56.20;;;;;;4955532;28;85380;-51
2023/07/22 10:35:30;;;;;;;88.85;54.28;;;21.60;53.60;;;;;;4968425;28;85088;-45
2023/07/22 10:38:10;;;;;;;91.40;54.17;;;21.60;54.80;;;;;;4965805;28;87174;-45
2023/07/22 10:40:50;;;;;;;87.53;54.10;;;21.80;54.90;;;;;;4958610;28;86239;-44
2023/07/22 10:43:17;;;;;;;90.97;54.67;;;21.80;54.30;;;;;;4955099;28;87261;-49
2023/07/22 10:45:58;;;;;;;91.97;54.20;;;21.80;55.00;;;;;;4965085;28;86407;-48
2023/07/22 10:48:33;;;;;;;;;;;21.80;52.30;;;;;;4959042;28;87425;-49
2023/07/22 10:51:06;;;;;;;92.30;54.38;;;21.70;53.30;;;;;;4960345;28;86043;-47
2023/07/22 10:53:32;;;;;;;92.13;54.70;;;21.80;54.60;;;;;;4962426;28;87429;-45
2023/07/22 10:56:16;;;;;;;90.38;54.50;;;21.90;54.10;;;;;;4956629;28;85082;-48
2023/07/22 10:58:45;;;;;;;91.25;54.88;;;22.00;54.00;;;;;;4923236;28;86947;-46
2023/07/22 11:01:33;;;;;;;92.00;55.08;;;22.10;54.50;;;;;;4938405;28;88217;-44
2023/07/22 11:04:14;;;;;;;91.78;54.95;;;22.20;53.80;;;;;;4939580;28;86604;-43
2023/07/22 11:06:48;;;;;;;92.43;54.83;;;22.30;53.30;;;;;;4939336;28;85812;-49
2023/07/22 11:09:34;;;;;;;91.28;54.83;;;22.30;53.20;;;;;;4931311;28;89311;-43
2023/07/22 11:12:12;;;;;;;92.40;55.35;;;22.40;53.70;;;;;;4941266;28;86139;-47
2023/07/22 11:14:47;;;;;;;91.97;55.15;;;22.50;52.80;;;;;;4943720;28;86698;-43
2023/07/22 11:17:13;;;;;;;90.72;54.83;;;22.60;53.20;;;;;;4942258;28;85423;-46
2023/07/22 11:19:39;;;;;;;90.15;54.67;;;22.60;52.20;;;;;;4944787;28;85949;-47
2023/07/22 11:22:05;;;;;;;90.32;54.92;;;22.50;52.20;;;;;;4942986;28;85842;-51
2023/07/22 11:24:34;;;;;;;89.80;54.72;;;22.50;52.90;;;;;;4942749;28;88804;-44
2023/07/22 11:27:06;;;;;;;90.57;54.47;;;22.50;51.20;;;;;;4941805;28;87610;-45
2023/07/22 11:29:32;;;;;;;90.15;54.85;;;22.50;51.90;;;;;;4938233;28;85568;-45
2023/07/22 11:31:58;;;;;;;88.53;54.38;;;22.30;51.80;;;;;;4936974;28;87338;-50
2023/07/22 11:34:24;;;;;;;90.95;54.65;;;22.40;52.60;;;;;;4942553;28;86019;-46
2023/07/22 11:36:51;;;;;;;91.65;54.25;;;22.30;52.70;;;;;;4942044;28;89055;-50
2023/07/22 11:39:19;;;;;;;89.88;54.40;;;22.30;51.00;;;;;;4937459;28;88559;-46
2023/07/22 11:41:46;;;;;;;89.03;54.35;;;22.30;51.60;;;;;;4936240;28;87042;-47
2023/07/22 11:44:14;;;;;;;91.10;54.50;;;22.40;52.10;;;;;;4937998;28;87093;-47
2023/07/22 11:47:09;;;;;;;92.50;54.53;;;22.40;52.50;;;;;;4941940;28;85993;-43
2023/07/22 11:49:46;;;;;;;89.07;54.17;;;22.50;52.80;;;;;;4937556;28;86461;-39
2023/07/22 11:52:19;;;;;;;93.65;54.38;;;22.40;52.90;;;;;;4946900;28;88746;-40
2023/07/22 11:54:47;;;;;;;91.50;54.60;;;22.40;52.50;;;;;;4937933;28;90114;-40
2023/07/22 11:57:21;;;;;;;91.03;54.67;;;22.30;53.40;;;;;;4956350;28;85251;-47
2023/07/22 11:59:52;;;;;;;90.18;54.45;;;22.30;52.70;;;;;;4966463;28;89262;-51
2023/07/22 12:02:21;;;;;;;88.78;54.30;;;22.30;53.40;;;;;;4969952;28;87111;-44
2023/07/22 12:04:57;;;;;;;91.10;54.83;;;22.30;53.50;;;;;;4962525;28;85247;-44
2023/07/22 12:07:33;;;;;;;89.82;54.40;;;22.20;53.70;;;;;;4959700;28;86060;-43
2023/07/22 12:10:21;;;;;;;89.32;54.17;;;22.30;54.00;;;;;;4961290;28;87233;-43
2023/07/22 12:12:47;;;;;;;89.63;54.70;;;22.40;54.10;;;;;;4947202;28;86262;-45
2023/07/22 12:15:19;;;;;;;88.45;54.67;;;22.40;54.60;;;;;;4965312;28;88051;-43
2023/07/22 12:17:56;;;;;;;88.57;54.83;;;22.50;54.50;;;;;;4961380;28;89578;-49
2023/07/22 12:20:34;;;;;;;92.22;55.05;;;22.60;54.50;;;;;;4964235;28;90085;-47
2023/07/22 12:23:01;;;;;;;90.47;54.95;;;22.70;54.90;;;;;;4943473;28;87342;-44
2023/07/22 12:25:26;;;;;;;90.53;55.20;;;22.70;54.00;;;;;;4966603;28;89959;-45
2023/07/22 12:27:52;;;;;;;89.28;54.97;;;22.70;54.10;;;;;;4961244;28;86798;-44